sensor_id;sensor_type;location;lat;lon;timestamp;P1;durP1;ratioP1;P2;durP2;ratioP2
64199;SDS011;50516;52.272;5.136;2023-07-29T00:01:16;3.65;;;2.42;;
64199;SDS011;50516;52.272;5.136;2023-07-29T00:03:41;2.83;;;2.20;;
64199;SDS011;50516;52.272;5.136;2023-07-29T00:06:06;4.88;;;2.13;;
64199;SDS011;50516;52.272;5.136;2023-07-29T00:08:35;2.80;;;2.10;;
64199;SDS011;50516;52.272;5.136;2023-07-29T00:11:00;8.90;;;2.58;;
64199;SDS011;50516;52.272;5.136;2023-07-29T00:13:25;5.13;;;2.40;;
64199;SDS011;50516;52.272;5.136;2023-07-29T00:15:53;3.78;;;2.10;;
64199;SDS011;50516;52.272;5.136;2023-07-29T00:18:18;4.88;;;2.20;;
64199;SDS011;50516;52.272;5.136;2023-07-29T00:20:44;4.45;;;2.10;;
64199;SDS011;50516;52.272;5.136;2023-07-29T00:23:09;3.08;;;2.15;;
64199;SDS011;50516;52.272;5.136;2023-07-29T00:25:34;3.38;;;2.17;;
64199;SDS011;50516;52.272;5.136;2023-07-29T00:28:00;2.95;;;1.98;;
64199;SDS011;50516;52.272;5.136;2023-07-29T00:30:25;4.85;;;2.00;;
64199;SDS011;50516;52.272;5.136;2023-07-29T00:32:51;2.95;;;2.05;;
64199;SDS011;50516;52.272;5.136;2023-07-29T00:35:16;5.03;;;2.30;;
64199;SDS011;50516;52.272;5.136;2023-07-29T00:37:41;4.95;;;2.30;;
64199;SDS011;50516;52.272;5.136;2023-07-29T00:40:12;7.18;;;2.88;;
64199;SDS011;50516;52.272;5.136;2023-07-29T00:42:41;5.20;;;2.58;;
64199;SDS011;50516;52.272;5.136;2023-07-29T00:45:08;9.98;;;3.20;;
64199;SDS011;50516;52.272;5.136;2023-07-29T00:47:34;5.10;;;2.60;;
64199;SDS011;50516;52.272;5.136;2023-07-29T00:49:59;5.07;;;2.20;;
64199;SDS011;50516;52.272;5.136;2023-07-29T00:52:24;7.22;;;2.53;;
64199;SDS011;50516;52.272;5.136;2023-07-29T00:54:50;6.07;;;3.50;;
64199;SDS011;50516;52.272;5.136;2023-07-29T00:57:15;6.18;;;2.58;;
64199;SDS011;50516;52.272;5.136;2023-07-29T00:59:42;5.57;;;3.10;;
64199;SDS011;50516;52.272;5.136;2023-07-29T01:02:08;10.57;;;2.35;;
64199;SDS011;50516;52.272;5.136;2023-07-29T01:04:33;5.35;;;2.45;;
64199;SDS011;50516;52.272;5.136;2023-07-29T01:07:03;6.20;;;2.33;;
64199;SDS011;50516;52.272;5.136;2023-07-29T01:17:57;6.55;;;2.63;;
64199;SDS011;50516;52.272;5.136;2023-07-29T01:20:29;5.80;;;2.53;;
64199;SDS011;50516;52.272;5.136;2023-07-29T01:22:58;6.82;;;2.95;;
64199;SDS011;50516;52.272;5.136;2023-07-29T01:25:23;8.20;;;2.90;;
64199;SDS011;50516;52.272;5.136;2023-07-29T01:27:49;7.22;;;3.17;;
64199;SDS011;50516;52.272;5.136;2023-07-29T01:30:22;7.68;;;2.92;;
64199;SDS011;50516;52.272;5.136;2023-07-29T01:32:54;8.07;;;2.88;;
64199;SDS011;50516;52.272;5.136;2023-07-29T01:35:51;6.38;;;2.88;;
64199;SDS011;50516;52.272;5.136;2023-07-29T01:38:30;5.03;;;2.97;;
64199;SDS011;50516;52.272;5.136;2023-07-29T01:41:01;7.63;;;3.42;;
64199;SDS011;50516;52.272;5.136;2023-07-29T01:43:28;6.00;;;2.58;;
64199;SDS011;50516;52.272;5.136;2023-07-29T01:45:54;5.70;;;3.30;;
64199;SDS011;50516;52.272;5.136;2023-07-29T01:48:21;5.93;;;3.38;;
64199;SDS011;50516;52.272;5.136;2023-07-29T01:50:46;5.40;;;3.00;;
64199;SDS011;50516;52.272;5.136;2023-07-29T01:53:12;9.32;;;3.05;;
64199;SDS011;50516;52.272;5.136;2023-07-29T01:55:38;7.40;;;3.00;;
64199;SDS011;50516;52.272;5.136;2023-07-29T01:58:03;8.07;;;3.25;;
64199;SDS011;50516;52.272;5.136;2023-07-29T02:00:29;5.97;;;3.20;;
64199;SDS011;50516;52.272;5.136;2023-07-29T02:02:54;6.18;;;3.05;;
64199;SDS011;50516;52.272;5.136;2023-07-29T02:05:19;8.15;;;2.90;;
64199;SDS011;50516;52.272;5.136;2023-07-29T02:07:45;7.25;;;3.10;;
64199;SDS011;50516;52.272;5.136;2023-07-29T02:10:10;4.57;;;2.83;;
64199;SDS011;50516;52.272;5.136;2023-07-29T02:12:35;8.07;;;3.35;;
64199;SDS011;50516;52.272;5.136;2023-07-29T02:15:01;9.38;;;3.30;;
64199;SDS011;50516;52.272;5.136;2023-07-29T02:17:26;4.78;;;2.70;;
64199;SDS011;50516;52.272;5.136;2023-07-29T02:19:51;10.32;;;4.65;;
64199;SDS011;50516;52.272;5.136;2023-07-29T02:22:17;6.13;;;3.63;;
64199;SDS011;50516;52.272;5.136;2023-07-29T02:24:43;9.70;;;3.72;;
64199;SDS011;50516;52.272;5.136;2023-07-29T02:27:09;6.13;;;3.38;;
64199;SDS011;50516;52.272;5.136;2023-07-29T02:29:35;6.63;;;3.60;;
64199;SDS011;50516;52.272;5.136;2023-07-29T02:32:00;8.77;;;3.28;;
64199;SDS011;50516;52.272;5.136;2023-07-29T02:34:26;6.65;;;3.67;;
64199;SDS011;50516;52.272;5.136;2023-07-29T02:36:51;8.00;;;3.90;;
64199;SDS011;50516;52.272;5.136;2023-07-29T02:39:16;8.57;;;4.15;;
64199;SDS011;50516;52.272;5.136;2023-07-29T02:41:42;7.22;;;4.28;;
64199;SDS011;50516;52.272;5.136;2023-07-29T02:44:07;7.70;;;4.00;;
64199;SDS011;50516;52.272;5.136;2023-07-29T02:46:33;6.18;;;3.72;;
64199;SDS011;50516;52.272;5.136;2023-07-29T02:48:58;11.73;;;4.55;;
64199;SDS011;50516;52.272;5.136;2023-07-29T02:51:24;12.82;;;5.18;;
64199;SDS011;50516;52.272;5.136;2023-07-29T02:53:49;9.90;;;4.50;;
64199;SDS011;50516;52.272;5.136;2023-07-29T02:56:15;8.02;;;4.20;;
64199;SDS011;50516;52.272;5.136;2023-07-29T02:58:40;9.50;;;4.38;;
64199;SDS011;50516;52.272;5.136;2023-07-29T03:01:05;9.70;;;4.13;;
64199;SDS011;50516;52.272;5.136;2023-07-29T03:03:31;10.80;;;4.60;;
64199;SDS011;50516;52.272;5.136;2023-07-29T03:06:07;9.68;;;4.32;;
64199;SDS011;50516;52.272;5.136;2023-07-29T03:08:34;9.60;;;4.30;;
64199;SDS011;50516;52.272;5.136;2023-07-29T03:11:04;10.63;;;4.28;;
64199;SDS011;50516;52.272;5.136;2023-07-29T03:13:31;8.02;;;4.22;;
64199;SDS011;50516;52.272;5.136;2023-07-29T03:16:15;8.30;;;4.60;;
64199;SDS011;50516;52.272;5.136;2023-07-29T03:18:42;6.50;;;4.30;;
64199;SDS011;50516;52.272;5.136;2023-07-29T03:21:08;8.90;;;3.92;;
64199;SDS011;50516;52.272;5.136;2023-07-29T03:23:34;11.82;;;3.70;;
64199;SDS011;50516;52.272;5.136;2023-07-29T03:26:01;11.73;;;4.07;;
64199;SDS011;50516;52.272;5.136;2023-07-29T03:28:29;11.23;;;3.80;;
64199;SDS011;50516;52.272;5.136;2023-07-29T03:30:57;9.55;;;3.55;;
64199;SDS011;50516;52.272;5.136;2023-07-29T03:33:23;7.30;;;3.45;;
64199;SDS011;50516;52.272;5.136;2023-07-29T03:35:50;8.70;;;4.30;;
64199;SDS011;50516;52.272;5.136;2023-07-29T03:38:15;6.63;;;3.63;;
64199;SDS011;50516;52.272;5.136;2023-07-29T03:40:41;7.43;;;3.70;;
64199;SDS011;50516;52.272;5.136;2023-07-29T03:43:07;10.75;;;4.63;;
64199;SDS011;50516;52.272;5.136;2023-07-29T03:45:33;8.40;;;3.85;;
64199;SDS011;50516;52.272;5.136;2023-07-29T03:47:59;10.18;;;4.20;;
64199;SDS011;50516;52.272;5.136;2023-07-29T03:50:25;5.97;;;3.75;;
64199;SDS011;50516;52.272;5.136;2023-07-29T03:52:51;10.10;;;3.88;;
64199;SDS011;50516;52.272;5.136;2023-07-29T03:55:16;10.35;;;3.42;;
64199;SDS011;50516;52.272;5.136;2023-07-29T03:57:41;14.43;;;4.53;;
64199;SDS011;50516;52.272;5.136;2023-07-29T04:00:07;7.60;;;3.65;;
64199;SDS011;50516;52.272;5.136;2023-07-29T04:02:33;7.22;;;4.07;;
64199;SDS011;50516;52.272;5.136;2023-07-29T04:05:02;8.07;;;3.97;;
64199;SDS011;50516;52.272;5.136;2023-07-29T04:07:28;8.35;;;4.30;;
64199;SDS011;50516;52.272;5.136;2023-07-29T04:09:53;8.35;;;4.25;;
64199;SDS011;50516;52.272;5.136;2023-07-29T04:12:18;7.38;;;3.97;;
64199;SDS011;50516;52.272;5.136;2023-07-29T04:14:46;7.95;;;3.72;;
64199;SDS011;50516;52.272;5.136;2023-07-29T04:17:11;7.10;;;3.70;;
64199;SDS011;50516;52.272;5.136;2023-07-29T04:19:37;7.28;;;3.70;;
64199;SDS011;50516;52.272;5.136;2023-07-29T04:22:02;9.20;;;3.63;;
64199;SDS011;50516;52.272;5.136;2023-07-29T04:24:27;10.45;;;3.70;;
64199;SDS011;50516;52.272;5.136;2023-07-29T04:26:53;5.75;;;3.38;;
64199;SDS011;50516;52.272;5.136;2023-07-29T04:29:18;5.03;;;3.38;;
64199;SDS011;50516;52.272;5.136;2023-07-29T04:31:43;5.13;;;3.60;;
64199;SDS011;50516;52.272;5.136;2023-07-29T04:34:09;6.47;;;3.28;;
64199;SDS011;50516;52.272;5.136;2023-07-29T04:36:34;11.00;;;4.55;;
64199;SDS011;50516;52.272;5.136;2023-07-29T04:39:00;7.22;;;3.30;;
64199;SDS011;50516;52.272;5.136;2023-07-29T04:41:25;7.82;;;3.55;;
64199;SDS011;50516;52.272;5.136;2023-07-29T04:43:50;5.57;;;3.42;;
64199;SDS011;50516;52.272;5.136;2023-07-29T04:46:16;4.72;;;3.40;;
64199;SDS011;50516;52.272;5.136;2023-07-29T04:48:41;8.90;;;3.53;;
64199;SDS011;50516;52.272;5.136;2023-07-29T04:51:06;8.23;;;3.83;;
64199;SDS011;50516;52.272;5.136;2023-07-29T04:53:32;5.47;;;3.42;;
64199;SDS011;50516;52.272;5.136;2023-07-29T04:55:57;7.78;;;3.90;;
64199;SDS011;50516;52.272;5.136;2023-07-29T04:58:23;6.55;;;3.90;;
64199;SDS011;50516;52.272;5.136;2023-07-29T05:00:49;6.25;;;3.60;;
64199;SDS011;50516;52.272;5.136;2023-07-29T05:03:14;13.38;;;3.78;;
64199;SDS011;50516;52.272;5.136;2023-07-29T05:05:39;7.97;;;3.47;;
64199;SDS011;50516;52.272;5.136;2023-07-29T05:08:05;6.25;;;3.75;;
64199;SDS011;50516;52.272;5.136;2023-07-29T05:10:30;7.43;;;3.78;;
64199;SDS011;50516;52.272;5.136;2023-07-29T05:12:55;8.75;;;4.47;;
64199;SDS011;50516;52.272;5.136;2023-07-29T05:15:20;5.93;;;3.50;;
64199;SDS011;50516;52.272;5.136;2023-07-29T05:17:46;10.02;;;3.88;;
64199;SDS011;50516;52.272;5.136;2023-07-29T05:20:11;9.80;;;4.45;;
64199;SDS011;50516;52.272;5.136;2023-07-29T05:22:36;8.45;;;3.85;;
64199;SDS011;50516;52.272;5.136;2023-07-29T05:25:02;7.97;;;3.70;;
64199;SDS011;50516;52.272;5.136;2023-07-29T05:27:27;8.55;;;4.10;;
64199;SDS011;50516;52.272;5.136;2023-07-29T05:29:53;7.63;;;3.78;;
64199;SDS011;50516;52.272;5.136;2023-07-29T05:32:18;6.75;;;4.07;;
64199;SDS011;50516;52.272;5.136;2023-07-29T05:34:43;10.10;;;4.53;;
64199;SDS011;50516;52.272;5.136;2023-07-29T05:37:09;6.72;;;3.30;;
64199;SDS011;50516;52.272;5.136;2023-07-29T05:39:34;6.97;;;3.60;;
64199;SDS011;50516;52.272;5.136;2023-07-29T05:42:00;6.30;;;4.10;;
64199;SDS011;50516;52.272;5.136;2023-07-29T05:44:27;9.70;;;4.20;;
64199;SDS011;50516;52.272;5.136;2023-07-29T05:46:53;8.63;;;4.40;;
64199;SDS011;50516;52.272;5.136;2023-07-29T05:49:18;12.15;;;4.07;;
64199;SDS011;50516;52.272;5.136;2023-07-29T05:51:43;11.13;;;4.93;;
64199;SDS011;50516;52.272;5.136;2023-07-29T05:54:09;7.45;;;4.18;;
64199;SDS011;50516;52.272;5.136;2023-07-29T05:56:34;9.45;;;4.53;;
64199;SDS011;50516;52.272;5.136;2023-07-29T05:58:59;11.90;;;5.30;;
64199;SDS011;50516;52.272;5.136;2023-07-29T06:01:25;7.68;;;4.03;;
64199;SDS011;50516;52.272;5.136;2023-07-29T06:03:51;7.82;;;4.63;;
64199;SDS011;50516;52.272;5.136;2023-07-29T06:06:16;6.90;;;4.00;;
64199;SDS011;50516;52.272;5.136;2023-07-29T06:08:42;9.57;;;4.05;;
64199;SDS011;50516;52.272;5.136;2023-07-29T06:11:07;7.00;;;3.90;;
64199;SDS011;50516;52.272;5.136;2023-07-29T06:13:32;13.18;;;5.43;;
64199;SDS011;50516;52.272;5.136;2023-07-29T06:15:57;8.27;;;4.10;;
64199;SDS011;50516;52.272;5.136;2023-07-29T06:18:23;12.02;;;4.65;;
64199;SDS011;50516;52.272;5.136;2023-07-29T06:20:49;8.40;;;4.28;;
64199;SDS011;50516;52.272;5.136;2023-07-29T06:23:15;7.68;;;4.43;;
64199;SDS011;50516;52.272;5.136;2023-07-29T06:25:40;8.98;;;4.22;;
64199;SDS011;50516;52.272;5.136;2023-07-29T06:28:05;6.95;;;4.47;;
64199;SDS011;50516;52.272;5.136;2023-07-29T06:30:31;8.10;;;4.35;;
64199;SDS011;50516;52.272;5.136;2023-07-29T06:32:56;7.53;;;4.47;;
64199;SDS011;50516;52.272;5.136;2023-07-29T06:35:21;7.50;;;4.43;;
64199;SDS011;50516;52.272;5.136;2023-07-29T06:37:47;7.45;;;4.80;;
64199;SDS011;50516;52.272;5.136;2023-07-29T06:40:12;11.25;;;4.85;;
64199;SDS011;50516;52.272;5.136;2023-07-29T06:42:37;9.18;;;4.80;;
64199;SDS011;50516;52.272;5.136;2023-07-29T06:45:04;8.32;;;4.82;;
64199;SDS011;50516;52.272;5.136;2023-07-29T06:47:30;14.95;;;5.43;;
64199;SDS011;50516;52.272;5.136;2023-07-29T06:49:55;11.10;;;5.00;;
64199;SDS011;50516;52.272;5.136;2023-07-29T06:52:21;11.68;;;4.93;;
64199;SDS011;50516;52.272;5.136;2023-07-29T06:54:46;11.45;;;4.90;;
64199;SDS011;50516;52.272;5.136;2023-07-29T06:57:11;10.70;;;4.55;;
64199;SDS011;50516;52.272;5.136;2023-07-29T06:59:36;9.55;;;6.07;;
64199;SDS011;50516;52.272;5.136;2023-07-29T07:02:02;10.35;;;4.57;;
64199;SDS011;50516;52.272;5.136;2023-07-29T07:04:27;9.75;;;4.72;;
64199;SDS011;50516;52.272;5.136;2023-07-29T07:06:53;7.18;;;4.60;;
64199;SDS011;50516;52.272;5.136;2023-07-29T07:09:19;11.80;;;5.50;;
64199;SDS011;50516;52.272;5.136;2023-07-29T07:11:44;9.93;;;4.75;;
64199;SDS011;50516;52.272;5.136;2023-07-29T07:14:09;9.43;;;4.00;;
64199;SDS011;50516;52.272;5.136;2023-07-29T07:16:35;9.95;;;4.47;;
64199;SDS011;50516;52.272;5.136;2023-07-29T07:19:01;9.88;;;4.82;;
64199;SDS011;50516;52.272;5.136;2023-07-29T07:21:27;12.30;;;4.80;;
64199;SDS011;50516;52.272;5.136;2023-07-29T07:23:52;9.68;;;5.15;;
64199;SDS011;50516;52.272;5.136;2023-07-29T07:26:18;12.43;;;5.20;;
64199;SDS011;50516;52.272;5.136;2023-07-29T07:28:43;9.82;;;4.35;;
64199;SDS011;50516;52.272;5.136;2023-07-29T07:31:08;10.35;;;4.13;;
64199;SDS011;50516;52.272;5.136;2023-07-29T07:33:34;7.07;;;4.15;;
64199;SDS011;50516;52.272;5.136;2023-07-29T07:35:59;7.70;;;4.30;;
64199;SDS011;50516;52.272;5.136;2023-07-29T07:38:24;11.10;;;5.10;;
64199;SDS011;50516;52.272;5.136;2023-07-29T07:40:56;9.00;;;4.40;;
64199;SDS011;50516;52.272;5.136;2023-07-29T07:43:22;9.20;;;4.50;;
64199;SDS011;50516;52.272;5.136;2023-07-29T07:45:47;6.97;;;3.90;;
64199;SDS011;50516;52.272;5.136;2023-07-29T07:48:13;7.55;;;4.57;;
64199;SDS011;50516;52.272;5.136;2023-07-29T07:50:38;8.45;;;4.38;;
64199;SDS011;50516;52.272;5.136;2023-07-29T07:53:04;9.38;;;5.13;;
64199;SDS011;50516;52.272;5.136;2023-07-29T07:55:30;11.23;;;4.40;;
64199;SDS011;50516;52.272;5.136;2023-07-29T07:57:55;9.45;;;4.38;;
64199;SDS011;50516;52.272;5.136;2023-07-29T08:00:20;6.50;;;4.40;;
64199;SDS011;50516;52.272;5.136;2023-07-29T08:02:46;9.05;;;4.63;;
64199;SDS011;50516;52.272;5.136;2023-07-29T08:05:11;7.45;;;4.18;;
64199;SDS011;50516;52.272;5.136;2023-07-29T08:07:37;8.98;;;4.15;;
64199;SDS011;50516;52.272;5.136;2023-07-29T08:10:02;6.32;;;3.78;;
64199;SDS011;50516;52.272;5.136;2023-07-29T08:12:28;7.20;;;4.13;;
64199;SDS011;50516;52.272;5.136;2023-07-29T08:14:53;10.32;;;4.20;;
64199;SDS011;50516;52.272;5.136;2023-07-29T08:17:18;7.20;;;3.40;;
64199;SDS011;50516;52.272;5.136;2023-07-29T08:19:44;6.82;;;3.75;;
64199;SDS011;50516;52.272;5.136;2023-07-29T08:22:09;6.32;;;3.30;;
64199;SDS011;50516;52.272;5.136;2023-07-29T08:24:34;6.93;;;3.65;;
64199;SDS011;50516;52.272;5.136;2023-07-29T08:27:00;8.80;;;4.57;;
64199;SDS011;50516;52.272;5.136;2023-07-29T08:29:25;6.60;;;3.65;;
64199;SDS011;50516;52.272;5.136;2023-07-29T08:31:51;7.45;;;3.88;;
64199;SDS011;50516;52.272;5.136;2023-07-29T08:34:16;6.25;;;3.65;;
64199;SDS011;50516;52.272;5.136;2023-07-29T08:36:42;8.43;;;3.65;;
64199;SDS011;50516;52.272;5.136;2023-07-29T08:39:07;6.30;;;3.25;;
64199;SDS011;50516;52.272;5.136;2023-07-29T08:41:56;9.95;;;3.05;;
64199;SDS011;50516;52.272;5.136;2023-07-29T08:44:30;10.88;;;3.50;;
64199;SDS011;50516;52.272;5.136;2023-07-29T08:47:01;10.00;;;2.85;;
64199;SDS011;50516;52.272;5.136;2023-07-29T08:49:28;7.35;;;3.05;;
64199;SDS011;50516;52.272;5.136;2023-07-29T08:51:55;7.13;;;2.88;;
64199;SDS011;50516;52.272;5.136;2023-07-29T08:54:22;8.98;;;2.90;;
64199;SDS011;50516;52.272;5.136;2023-07-29T08:56:48;6.97;;;2.90;;
64199;SDS011;50516;52.272;5.136;2023-07-29T08:59:13;7.63;;;2.75;;
64199;SDS011;50516;52.272;5.136;2023-07-29T09:01:39;9.32;;;2.83;;
64199;SDS011;50516;52.272;5.136;2023-07-29T09:04:04;6.13;;;3.08;;
64199;SDS011;50516;52.272;5.136;2023-07-29T09:06:30;5.55;;;3.00;;
64199;SDS011;50516;52.272;5.136;2023-07-29T09:08:56;6.00;;;2.80;;
64199;SDS011;50516;52.272;5.136;2023-07-29T09:11:24;6.22;;;2.85;;
64199;SDS011;50516;52.272;5.136;2023-07-29T09:13:49;7.20;;;2.80;;
64199;SDS011;50516;52.272;5.136;2023-07-29T09:16:15;7.85;;;2.97;;
64199;SDS011;50516;52.272;5.136;2023-07-29T09:18:40;5.40;;;2.40;;
64199;SDS011;50516;52.272;5.136;2023-07-29T09:21:06;4.95;;;2.67;;
64199;SDS011;50516;52.272;5.136;2023-07-29T09:23:41;5.57;;;2.42;;
64199;SDS011;50516;52.272;5.136;2023-07-29T09:26:07;8.18;;;3.20;;
64199;SDS011;50516;52.272;5.136;2023-07-29T09:28:33;7.88;;;3.67;;
64199;SDS011;50516;52.272;5.136;2023-07-29T09:30:59;6.35;;;3.15;;
64199;SDS011;50516;52.272;5.136;2023-07-29T09:33:25;6.50;;;2.72;;
64199;SDS011;50516;52.272;5.136;2023-07-29T09:35:51;5.47;;;2.60;;
64199;SDS011;50516;52.272;5.136;2023-07-29T09:38:16;6.60;;;2.95;;
64199;SDS011;50516;52.272;5.136;2023-07-29T09:40:42;7.65;;;2.92;;
64199;SDS011;50516;52.272;5.136;2023-07-29T09:43:09;7.57;;;3.20;;
64199;SDS011;50516;52.272;5.136;2023-07-29T09:45:35;7.60;;;2.88;;
64199;SDS011;50516;52.272;5.136;2023-07-29T09:48:01;5.40;;;2.90;;
64199;SDS011;50516;52.272;5.136;2023-07-29T09:50:28;7.63;;;2.90;;
64199;SDS011;50516;52.272;5.136;2023-07-29T09:52:55;7.07;;;3.33;;
64199;SDS011;50516;52.272;5.136;2023-07-29T09:55:23;9.95;;;2.80;;
64199;SDS011;50516;52.272;5.136;2023-07-29T09:57:53;7.40;;;2.67;;
64199;SDS011;50516;52.272;5.136;2023-07-29T10:00:21;7.38;;;3.20;;
64199;SDS011;50516;52.272;5.136;2023-07-29T10:02:46;5.00;;;2.45;;
64199;SDS011;50516;52.272;5.136;2023-07-29T10:05:12;7.47;;;2.70;;
64199;SDS011;50516;52.272;5.136;2023-07-29T10:07:38;6.75;;;3.17;;
64199;SDS011;50516;52.272;5.136;2023-07-29T10:10:05;9.18;;;3.20;;
64199;SDS011;50516;52.272;5.136;2023-07-29T10:12:32;8.68;;;3.30;;
64199;SDS011;50516;52.272;5.136;2023-07-29T10:15:05;5.65;;;2.85;;
64199;SDS011;50516;52.272;5.136;2023-07-29T10:17:35;6.47;;;3.03;;
64199;SDS011;50516;52.272;5.136;2023-07-29T10:20:02;6.35;;;2.75;;
64199;SDS011;50516;52.272;5.136;2023-07-29T10:22:37;4.43;;;2.22;;
64199;SDS011;50516;52.272;5.136;2023-07-29T10:25:07;10.75;;;3.53;;
64199;SDS011;50516;52.272;5.136;2023-07-29T10:30:11;6.25;;;3.13;;
64199;SDS011;50516;52.272;5.136;2023-07-29T10:32:38;6.53;;;2.85;;
64199;SDS011;50516;52.272;5.136;2023-07-29T10:35:04;8.15;;;3.28;;
64199;SDS011;50516;52.272;5.136;2023-07-29T10:37:29;6.40;;;2.95;;
64199;SDS011;50516;52.272;5.136;2023-07-29T10:39:55;7.93;;;3.10;;
64199;SDS011;50516;52.272;5.136;2023-07-29T10:42:21;5.18;;;2.60;;
64199;SDS011;50516;52.272;5.136;2023-07-29T10:44:47;5.22;;;2.80;;
64199;SDS011;50516;52.272;5.136;2023-07-29T10:49:41;5.40;;;2.70;;
64199;SDS011;50516;52.272;5.136;2023-07-29T10:52:06;5.55;;;2.85;;
64199;SDS011;50516;52.272;5.136;2023-07-29T10:54:41;5.60;;;2.58;;
64199;SDS011;50516;52.272;5.136;2023-07-29T10:57:13;5.13;;;2.88;;
64199;SDS011;50516;52.272;5.136;2023-07-29T10:59:40;6.30;;;3.30;;
64199;SDS011;50516;52.272;5.136;2023-07-29T11:02:15;5.05;;;2.95;;
64199;SDS011;50516;52.272;5.136;2023-07-29T11:04:49;7.45;;;3.35;;
64199;SDS011;50516;52.272;5.136;2023-07-29T11:09:42;5.07;;;3.00;;
64199;SDS011;50516;52.272;5.136;2023-07-29T11:15:00;6.63;;;3.47;;
64199;SDS011;50516;52.272;5.136;2023-07-29T11:17:32;6.00;;;3.60;;
64199;SDS011;50516;52.272;5.136;2023-07-29T11:20:01;5.78;;;3.30;;
64199;SDS011;50516;52.272;5.136;2023-07-29T11:22:28;6.70;;;3.38;;
64199;SDS011;50516;52.272;5.136;2023-07-29T11:24:54;5.60;;;3.40;;
64199;SDS011;50516;52.272;5.136;2023-07-29T11:27:19;4.70;;;3.28;;
64199;SDS011;50516;52.272;5.136;2023-07-29T11:29:46;6.63;;;3.17;;
64199;SDS011;50516;52.272;5.136;2023-07-29T11:32:11;5.28;;;3.00;;
64199;SDS011;50516;52.272;5.136;2023-07-29T11:34:37;6.35;;;2.78;;
64199;SDS011;50516;52.272;5.136;2023-07-29T11:37:02;5.32;;;3.28;;
64199;SDS011;50516;52.272;5.136;2023-07-29T11:39:27;4.82;;;3.50;;
64199;SDS011;50516;52.272;5.136;2023-07-29T11:41:53;5.82;;;3.33;;
64199;SDS011;50516;52.272;5.136;2023-07-29T11:44:18;5.70;;;3.35;;
64199;SDS011;50516;52.272;5.136;2023-07-29T11:46:44;3.90;;;2.67;;
64199;SDS011;50516;52.272;5.136;2023-07-29T11:49:09;3.92;;;2.47;;
64199;SDS011;50516;52.272;5.136;2023-07-29T11:51:38;3.60;;;2.25;;
64199;SDS011;50516;52.272;5.136;2023-07-29T11:54:03;3.65;;;2.65;;
64199;SDS011;50516;52.272;5.136;2023-07-29T11:56:30;4.68;;;2.63;;
64199;SDS011;50516;52.272;5.136;2023-07-29T11:58:55;3.97;;;2.13;;
64199;SDS011;50516;52.272;5.136;2023-07-29T12:01:21;2.80;;;2.28;;
64199;SDS011;50516;52.272;5.136;2023-07-29T12:03:47;3.20;;;1.83;;
64199;SDS011;50516;52.272;5.136;2023-07-29T12:06:14;4.95;;;1.88;;
64199;SDS011;50516;52.272;5.136;2023-07-29T12:08:40;3.88;;;1.70;;
64199;SDS011;50516;52.272;5.136;2023-07-29T12:11:07;3.53;;;1.67;;
64199;SDS011;50516;52.272;5.136;2023-07-29T12:13:33;4.25;;;1.85;;
64199;SDS011;50516;52.272;5.136;2023-07-29T12:16:02;3.13;;;1.85;;
64199;SDS011;50516;52.272;5.136;2023-07-29T12:18:31;3.55;;;2.13;;
64199;SDS011;50516;52.272;5.136;2023-07-29T12:20:57;2.08;;;1.75;;
64199;SDS011;50516;52.272;5.136;2023-07-29T12:23:26;4.97;;;1.90;;
64199;SDS011;50516;52.272;5.136;2023-07-29T12:26:01;2.38;;;2.00;;
64199;SDS011;50516;52.272;5.136;2023-07-29T12:28:26;4.85;;;1.67;;
64199;SDS011;50516;52.272;5.136;2023-07-29T12:30:55;3.25;;;2.20;;
64199;SDS011;50516;52.272;5.136;2023-07-29T12:33:30;5.40;;;2.33;;
64199;SDS011;50516;52.272;5.136;2023-07-29T12:35:56;4.32;;;2.45;;
64199;SDS011;50516;52.272;5.136;2023-07-29T12:38:22;3.35;;;2.00;;
64199;SDS011;50516;52.272;5.136;2023-07-29T12:40:47;3.50;;;2.42;;
64199;SDS011;50516;52.272;5.136;2023-07-29T12:43:12;4.45;;;2.38;;
64199;SDS011;50516;52.272;5.136;2023-07-29T12:45:38;3.60;;;2.33;;
64199;SDS011;50516;52.272;5.136;2023-07-29T12:48:05;3.55;;;2.60;;
64199;SDS011;50516;52.272;5.136;2023-07-29T12:50:30;3.33;;;2.30;;
64199;SDS011;50516;52.272;5.136;2023-07-29T12:52:55;5.65;;;2.45;;
64199;SDS011;50516;52.272;5.136;2023-07-29T12:55:21;4.22;;;2.55;;
64199;SDS011;50516;52.272;5.136;2023-07-29T12:57:46;3.38;;;2.40;;
64199;SDS011;50516;52.272;5.136;2023-07-29T13:00:11;4.13;;;2.65;;
64199;SDS011;50516;52.272;5.136;2023-07-29T13:02:37;4.82;;;2.40;;
64199;SDS011;50516;52.272;5.136;2023-07-29T13:05:03;4.00;;;2.53;;
64199;SDS011;50516;52.272;5.136;2023-07-29T13:07:28;4.57;;;2.60;;
64199;SDS011;50516;52.272;5.136;2023-07-29T13:09:54;5.35;;;2.67;;
64199;SDS011;50516;52.272;5.136;2023-07-29T13:12:19;3.25;;;2.55;;
64199;SDS011;50516;52.272;5.136;2023-07-29T13:14:45;3.05;;;2.38;;
64199;SDS011;50516;52.272;5.136;2023-07-29T13:17:10;5.80;;;2.50;;
64199;SDS011;50516;52.272;5.136;2023-07-29T13:19:35;4.38;;;2.60;;
64199;SDS011;50516;52.272;5.136;2023-07-29T13:22:01;3.80;;;2.50;;
64199;SDS011;50516;52.272;5.136;2023-07-29T13:24:27;4.97;;;2.58;;
64199;SDS011;50516;52.272;5.136;2023-07-29T13:26:52;4.97;;;2.60;;
64199;SDS011;50516;52.272;5.136;2023-07-29T13:29:18;6.40;;;2.90;;
64199;SDS011;50516;52.272;5.136;2023-07-29T13:31:43;3.15;;;2.28;;
64199;SDS011;50516;52.272;5.136;2023-07-29T13:34:08;4.15;;;2.22;;
64199;SDS011;50516;52.272;5.136;2023-07-29T13:36:34;3.45;;;2.42;;
64199;SDS011;50516;52.272;5.136;2023-07-29T13:38:59;3.95;;;2.50;;
64199;SDS011;50516;52.272;5.136;2023-07-29T13:41:24;4.18;;;2.40;;
64199;SDS011;50516;52.272;5.136;2023-07-29T13:43:49;4.43;;;2.50;;
64199;SDS011;50516;52.272;5.136;2023-07-29T13:46:15;5.32;;;2.70;;
64199;SDS011;50516;52.272;5.136;2023-07-29T13:48:40;5.63;;;2.80;;
64199;SDS011;50516;52.272;5.136;2023-07-29T13:51:05;5.40;;;2.60;;
64199;SDS011;50516;52.272;5.136;2023-07-29T13:53:31;4.60;;;2.58;;
64199;SDS011;50516;52.272;5.136;2023-07-29T13:55:56;4.43;;;2.35;;
64199;SDS011;50516;52.272;5.136;2023-07-29T13:58:21;5.38;;;2.60;;
64199;SDS011;50516;52.272;5.136;2023-07-29T14:00:47;5.20;;;2.47;;
64199;SDS011;50516;52.272;5.136;2023-07-29T14:03:12;2.95;;;2.13;;
64199;SDS011;50516;52.272;5.136;2023-07-29T14:05:37;3.47;;;2.28;;
64199;SDS011;50516;52.272;5.136;2023-07-29T14:08:03;4.40;;;2.25;;
64199;SDS011;50516;52.272;5.136;2023-07-29T14:10:28;3.45;;;2.10;;
64199;SDS011;50516;52.272;5.136;2023-07-29T14:12:53;5.32;;;2.60;;
64199;SDS011;50516;52.272;5.136;2023-07-29T14:15:19;4.32;;;1.98;;
64199;SDS011;50516;52.272;5.136;2023-07-29T14:17:44;3.20;;;2.15;;
64199;SDS011;50516;52.272;5.136;2023-07-29T14:20:10;3.47;;;2.40;;
64199;SDS011;50516;52.272;5.136;2023-07-29T14:22:36;6.00;;;2.67;;
64199;SDS011;50516;52.272;5.136;2023-07-29T14:25:01;3.92;;;2.25;;
64199;SDS011;50516;52.272;5.136;2023-07-29T14:27:26;4.97;;;2.42;;
64199;SDS011;50516;52.272;5.136;2023-07-29T14:29:52;3.78;;;2.30;;
64199;SDS011;50516;52.272;5.136;2023-07-29T14:32:17;5.95;;;2.60;;
64199;SDS011;50516;52.272;5.136;2023-07-29T14:34:42;4.03;;;2.25;;
64199;SDS011;50516;52.272;5.136;2023-07-29T14:37:08;6.30;;;2.40;;
64199;SDS011;50516;52.272;5.136;2023-07-29T14:39:33;5.82;;;2.22;;
64199;SDS011;50516;52.272;5.136;2023-07-29T14:41:58;5.35;;;2.15;;
64199;SDS011;50516;52.272;5.136;2023-07-29T14:44:24;4.15;;;2.00;;
64199;SDS011;50516;52.272;5.136;2023-07-29T14:46:49;5.05;;;2.53;;
64199;SDS011;50516;52.272;5.136;2023-07-29T14:49:15;4.78;;;2.35;;
64199;SDS011;50516;52.272;5.136;2023-07-29T14:51:40;3.58;;;2.20;;
64199;SDS011;50516;52.272;5.136;2023-07-29T14:54:05;6.45;;;2.22;;
64199;SDS011;50516;52.272;5.136;2023-07-29T14:56:31;3.65;;;2.20;;
64199;SDS011;50516;52.272;5.136;2023-07-29T14:58:56;2.63;;;1.95;;